Tiempo atmosférico en la estación meteorológica de San Cristóbal de La Laguna,Llano de los Loros, Santa Cruz de Tenerife (868 m.)



Fecha
DESCASC
Temp. máxima en grados centígrados (hora)
DESCASC
Temp. mínima en grados centígrados (hora)
DESCASC
Temp. media en grados centígrados
DESCASC
Racha de viento máxima en m/sg (hora)
DESCASC
Velocidad máxima media en intervalos de 10 minutos(hora)
DESCASC
Precipitaciones diarias en mm
DESCASC
Precipitaciones de 00:00 a 06:00 en mm
DESCASC
Precipitaciones de 06:00 a 12:00 en mm
DESCASC
Precipitaciones de 12:00 a 18:00 en mm
DESCASC
Precipitaciones de 18:00 a 24:00 en mm
DESCASC
17-09-2020 24.6 (16:30) 15.3 (23:59) 20 16.11 (23:00) 10.83 (20:50) 0 0 0 0 0
15-09-2020 26.4 (16:50) 16.7 (06:30) 21.6 13.61 (22:00) 9.17 (14:50) 0 0 0 0 0
14-09-2020 28.5 (14:40) 14.7 (07:10) 21.6 8.61 (05:00) 6.11 (05:10) 0 0 0 0 0
13-09-2020 25.8 (12:30) 15.5 (00:00) 20.6 6.67 (23:50) 3.89 (05:10) 0.2 0.2 0 0 0
12-09-2020 28 (13:30) 15.2 (05:20) 21.6 14.72 (02:20) 10.28 (02:10) 0 0 0 0 0
11-09-2020 25.6 (13:40) 15.2 (00:00) 20.4 15.56 (05:20) 11.11 (05:10) 0 0 0 0 0
10-09-2020 31.2 (12:40) 16.3 (00:00) 23.8 15 (07:00) 10.28 (07:00) 0 0 0 0 0
09-09-2020 32.6 (12:20) 23.7 (06:00) 28.1 13.06 (23:50) 8.89 (08:50) 0 0 0 0 0
08-09-2020 36.8 (15:00) 24.9 (00:00) 30.8 15.28 (08:20) 10 (08:10) 0 0 0 0 0
07-09-2020 34.5 (13:50) 18.8 (05:40) 26.6 7.78 (21:10) 5 (04:50) 0.2 0.2 0 0 0
06-09-2020 30.2 (14:00) 14.3 (00:00) 22.3 9.72 (00:10) 6.67 (07:30) 0 0 0 0 0
05-09-2020 28.7 (14:00) 15.4 (00:00) 22.1 13.89 (18:20) 9.72 (18:10) 0 0 0 0 0
04-09-2020 31.6 (14:20) 17.9 (00:00) 24.8 10.56 (23:40) 7.5 (23:40) 0 0 0 0 0
03-09-2020 30.4 (14:20) 15.5 (00:00) 22.9 7.22 (01:50) 4.72 (22:50) 0 0 0 0 0
02-09-2020 31 (14:20) 14.4 (00:00) 22.7 7.5 (04:10) 5.28 (23:30) 0 0 0 0 0
01-09-2020 22.1 (16:00) 14.9 (00:00) 18.5 10.83 (00:10) 5.56 (00:10) 0 0 0 0 0
31-08-2020 17 (14:10) 13.8 (00:00) 15.4 18.06 (16:20) 11.39 (16:20) 0 0 0 0 0
30-08-2020 15.9 (16:20) 13.6 (00:00) 14.8 16.39 (01:30) 6.94 (21:20) 5.2 1.2 2.4 1.6 0
29-08-2020 18.9 (12:50) 15 (00:00) 16.9 17.22 (23:10) 8.89 (04:00) 6.8 0 0 5.8 1
28-08-2020 33.6 (13:00) 18 (00:00) 25.8 13.89 (02:10) 7.5 (22:10) 0 0 0 0 0
27-08-2020 36.9 (13:50) 28.4 (00:00) 32.7 11.39 (22:00) 7.78 (02:00) 0 0 0 0 0
26-08-2020 37.8 (12:50) 25.4 (00:00) 31.6 13.61 (07:10) 8.89 (10:20) 0 0 0 0 0
25-08-2020 35.6 (13:00) 17.1 (00:00) 26.3 16.11 (02:30) 10.83 (00:40) 0 0 0 0 0
24-08-2020 27.3 (17:30) 16.7 (23:20) 22 17.78 (11:10) 10.28 (21:30) 0 0 0 0 0
23-08-2020 26.8 (14:30) 20.2 (00:00) 23.5 14.44 (08:00) 8.89 (23:50) 0 0 0 0 0
22-08-2020 36.4 (12:50) 20.1 (00:00) 28.3 14.17 (22:50) 10 (21:40) 0 0 0 0 0
21-08-2020 34.1 (14:20) 18 (03:30) 26 8.06 (00:20) 5.56 (00:20) 0 0 0 0 0
20-08-2020 32.9 (13:40) 16.6 (00:00) 24.8 10 (22:30) 6.39 (22:30) 0 0 0 0 0

Gráficas

Temp. máximas Temp. mínimas Temp. medias Precipitaciones Rachas de viento máximas Velocidades máximas media en intervalos de 10 minutos

Datos horarios

Fecha y hora oficial Temperatura (ºC) Velocidad del viento (km/h) Dirección del viento Racha (km/h) Dirección de racha Precipitación (mm) Presión (hPa) Tendencia (hPa) Humedad (%)
2020-09-18 23:00:00 15.4 14 Noroeste 41 Norte 0 -- -- 96
2020-09-18 22:00:00 15.3 24 Noroeste 44 Noroeste 0 -- -- 95
2020-09-18 21:00:00 15.4 14 Noroeste 42 Noroeste 0 -- -- 95
2020-09-18 20:00:00 15.9 23 Noroeste 38 Norte 0 -- -- 90
2020-09-18 19:00:00 18.1 12 Noroeste 32 Norte 0 -- -- 74
2020-09-18 18:00:00 19.4 15 Noroeste 38 Noroeste 0 -- -- 67
2020-09-18 17:00:00 19.8 19 Noroeste 34 Norte 0 -- -- 73
2020-09-18 16:00:00 19.5 20 Noroeste 39 Noroeste 0 -- -- 78
2020-09-18 15:00:00 19.6 23 Noroeste 35 Noroeste 0 -- -- 80
2020-09-18 14:00:00 20.5 13 Noroeste 29 Oeste 0 -- -- 75
2020-09-18 13:00:00 19.6 9 Noroeste 27 Noroeste 0 -- -- 81
2020-09-18 12:00:00 18.5 10 Noroeste 30 Noroeste 0 -- -- 86
2020-09-18 11:00:00 17.8 14 Noroeste 38 Noroeste 0 -- -- 87
2020-09-18 10:00:00 16.5 18 Noroeste 42 Noroeste 0 -- -- 92
2020-09-18 09:00:00 15.4 30 Noroeste 46 Noroeste 0 -- -- 98
2020-09-18 08:00:00 14.9 33 Noroeste 50 Noroeste 0 -- -- 98
2020-09-18 07:00:00 14.9 26 Noroeste 45 Noroeste 0 -- -- 98
2020-09-18 06:00:00 14.8 26 Noroeste 45 Noroeste 0 -- -- 98
2020-09-18 05:00:00 14.9 34 Noroeste 52 Noroeste 0 -- -- 97
2020-09-18 04:00:00 15 37 Noroeste 57 Noroeste 0 -- -- 97
2020-09-18 03:00:00 15.2 45 Noroeste 58 Noroeste 0 -- -- 86
2020-09-18 02:00:00 14.9 42 Noroeste 57 Noroeste 0 -- -- 95
2020-09-18 01:00:00 15.1 38 Noroeste 57 Noroeste 0 -- -- 97
2020-09-18 00:00:00 15.3 39 Noroeste 57 Noroeste 0 -- -- 98
2020-09-17 23:00:00 15.6 37 Noroeste 58 Noroeste 0 -- -- 98
2020-09-17 22:00:00 16.4 35 Noroeste 56 Noroeste 0 -- -- 91
2020-09-17 21:00:00 17.8 37 Noroeste 54 Noroeste 0 -- -- 75
2020-09-17 20:00:00 15.9 38 Noroeste 56 Norte 0 -- -- 96
2020-09-17 19:00:00 17 28 Noroeste 42 Noroeste 0 -- -- 95
2020-09-17 18:00:00 21 7 Oeste 27 Oeste 0 -- -- 75
2020-09-17 17:00:00 23.6 6 Noroeste 13 Norte 0 -- -- 66
2020-09-17 16:00:00 23.6 5 Sudeste 23 Noroeste 0 -- -- 67
2020-09-17 15:00:00 22.2 5 Este 36 Noroeste 0 -- -- 63
2020-09-17 14:00:00 18.6 20 Noroeste 33 Noroeste 0 -- -- 90
2020-09-17 13:00:00 22.6 9 Oeste 23 Oeste 0 -- -- 64
2020-09-17 12:00:00 21.3 6 Sudoeste 21 Norte 0 -- -- 70
2020-09-17 11:00:00 17.9 9 Noroeste 46 Noroeste 0 -- -- 96
2020-09-17 10:00:00 16.9 30 Noroeste 48 Noroeste 0 -- -- 99
2020-09-17 09:00:00 17.2 32 Noroeste 48 Noroeste 0 -- -- 98
2020-09-17 08:00:00 17.5 25 Noroeste 46 Noroeste 0 -- -- 97
2020-09-17 07:00:00 20 22 Noroeste 41 Noroeste 0 -- -- 75
2020-09-17 06:00:00 21.4 22 Noroeste 42 Oeste 0 -- -- 63
2020-09-17 05:00:00 22.4 12 Oeste 37 Oeste 0 -- -- 51
2020-09-17 04:00:00 20.8 22 Noroeste 46 Noroeste 0 -- -- 62
2020-09-17 03:00:00 18.1 30 Noroeste 53 Noroeste 0 -- -- 80
2020-09-17 02:00:00 20.5 27 Noroeste 45 Noroeste 0 -- -- 71
2020-09-17 01:00:00 23.1 12 Oeste 39 Noroeste 0 -- -- 50
2020-09-17 00:00:00 21.7 15 Noroeste 41 Noroeste 0 -- -- 59
2020-09-16 23:00:00 22.5 22 Noroeste 34 Noroeste 0 -- -- 53
2020-09-16 22:00:00 23.7 12 Noroeste 32 Noroeste 0 -- -- 46
2020-09-16 21:00:00 23.4 9 Noroeste 23 Noroeste 0 -- -- 46
2020-09-16 20:00:00 23.5 6 Noroeste 22 Noroeste 0 -- -- 47
2020-09-16 19:00:00 23.9 15 Noroeste 33 Noroeste 0 -- -- 47
2020-09-16 18:00:00 24 16 Noroeste 28 Noroeste 0 -- -- 46
2020-09-16 17:00:00 24.1 17 Noroeste 36 Oeste 0 -- -- 47
2020-09-16 16:00:00 24.6 17 Noroeste 39 Noroeste 0 -- -- 46
2020-09-16 15:00:00 24.9 17 Noroeste 30 Norte 0 -- -- 45
2020-09-16 14:00:00 26 13 Noroeste 27 Oeste 0 -- -- 42
2020-09-16 13:00:00 28.9 9 Sudeste 29 Noroeste 0 -- -- 39
2020-09-16 12:00:00 26.4 13 Sudeste 36 Nordeste 0 -- -- 47
2020-09-16 11:00:00 23.3 11 Norte 41 Norte 0 -- -- 47
2020-09-16 10:00:00 22.3 3 Nordeste 42 Noroeste 0 -- -- 46
2020-09-16 09:00:00 22.1 15 Norte 42 Nordeste 0 -- -- 43
2020-09-16 08:00:00 22.2 12 Norte 44 Norte 0 -- -- 38
2020-09-16 07:00:00 22.1 16 Norte 39 Norte 0 -- -- 37
2020-09-16 06:00:00 22.2 14 Norte 42 Noroeste 0 -- -- 35
2020-09-16 05:00:00 22.4 18 Norte 40 Norte 0 -- -- 35
2020-09-16 04:00:00 22.5 14 Norte 44 Norte 0 -- -- 37
2020-09-16 03:00:00 22.5 13 Norte 45 Nordeste 0 -- -- 31
2020-09-16 02:00:00 21.9 17 Norte 41 Noroeste 0 -- -- 28
2020-09-16 01:00:00 22.9 17 Norte 47 Nordeste 0 -- -- 26
2020-09-16 00:00:00 22.8 15 Nordeste 43 Nordeste 0 -- -- 25
2020-09-15 23:00:00 21.9 15 Norte 43 Norte 0 -- -- 29
2020-09-15 22:00:00 22.5 21 Norte 49 Nordeste 0 -- -- 30
2020-09-15 21:00:00 21.6 16 Norte 46 Noroeste 0 -- -- 32
2020-09-15 20:00:00 21.5 28 Noroeste 48 Noroeste 0 -- -- 32
2020-09-15 19:00:00 20.2 25 Noroeste 43 Noroeste 0 -- -- 62
2020-09-15 18:00:00 23.7 5 Oeste 29 Norte 0 -- -- 30
2020-09-15 17:00:00 26 8 Oeste 34 Norte 0 -- -- 33
2020-09-15 16:00:00 24.1 23 Noroeste 46 Noroeste 0 -- -- 33
2020-09-15 15:00:00 23.3 32 Noroeste 46 Noroeste 0 -- -- 40
2020-09-15 14:00:00 23.8 20 Noroeste 36 Noroeste 0 -- -- 42
2020-09-15 13:00:00 23.2 21 Noroeste 33 Noroeste 0 -- -- 46
2020-09-15 12:00:00 26.2 13 Noroeste 28 Noroeste 0 -- -- 23
2020-09-15 11:00:00 22.8 19 Noroeste 27 Noroeste 0 -- -- 31
2020-09-15 10:00:00 20.3 23 Noroeste 38 Noroeste 0 -- -- 51
2020-09-15 09:00:00 20.1 18 Noroeste 33 Noroeste 0 -- -- 48
2020-09-15 08:00:00 16.8 25 Norte 40 Noroeste 0 -- -- 89
2020-09-15 07:00:00 17.1 23 Noroeste 37 Noroeste 0 -- -- 88
2020-09-15 06:00:00 16.9 8 Norte 26 Norte 0 -- -- 92
2020-09-15 05:00:00 17.8 8 Norte 19 Norte 0 -- -- 79
2020-09-15 04:00:00 19.2 9 Sudeste 23 Norte 0 -- -- 67
2020-09-15 03:00:00 20.9 13 Este 44 Norte 0 -- -- 51
2020-09-15 02:00:00 23.2 19 Noroeste 36 Noroeste 0 -- -- 30
2020-09-15 01:00:00 19.2 11 Este 18 Sudeste 0 -- -- 58
2020-09-15 00:00:00 18.2 12 Sudeste 21 Este 0 -- -- 78
2020-09-14 23:00:00 19.1 8 Este 17 Norte 0 -- -- 62
2020-09-14 22:00:00 20.8 8 Nordeste 23 Norte 0 -- -- 50
2020-09-14 21:00:00 18.6 8 Este 14 Este 0 -- -- 75
2020-09-14 20:00:00 19.5 7 Sudeste 12 Sudeste 0 -- -- 65
2020-09-14 19:00:00 22.1 4 Norte 13 Sudeste 0 -- -- 51
2020-09-14 18:00:00 24.2 4 Sur 14 Sudeste 0 -- -- 50
2020-09-14 17:00:00 26 4 Sur 20 Noroeste 0 -- -- 46
2020-09-14 16:00:00 24.1 13 Norte 23 Noroeste 0 -- -- 49
2020-09-14 15:00:00 27.5 6 Sudoeste 20 Noroeste 0 -- -- 45
2020-09-14 14:00:00 25.2 6 Noroeste 22 Sur 0 -- -- 48
2020-09-14 13:00:00 24.3 7 Noroeste 17 Norte 0 -- -- 50
2020-09-14 12:00:00 25.3 6 Sudeste 14 Sudeste 0 -- -- 62
2020-09-14 11:00:00 23.5 6 Sudeste 13 Sudeste 0 -- -- 66
2020-09-14 10:00:00 20.6 9 Norte 23 Norte 0 -- -- 58
2020-09-14 09:00:00 19.3 3 Este 17 Norte 0 -- -- 65
2020-09-14 08:00:00 17.6 11 Norte 18 Norte 0 -- -- 63
2020-09-14 07:00:00 14.9 3 Este 12 Norte 0 -- -- 84
2020-09-14 06:00:00 17.5 10 Norte 30 Norte 0 -- -- 68
2020-09-14 05:00:00 17.1 17 Noroeste 31 Noroeste 0 -- -- 71
2020-09-14 04:00:00 16.7 14 Norte 27 Norte 0 -- -- 77
2020-09-14 03:00:00 16.5 16 Norte 27 Noroeste 0 -- -- 88
2020-09-14 02:00:00 17 15 Noroeste 27 Norte 0 -- -- 80
2020-09-14 01:00:00 17.2 12 Noroeste 25 Oeste 0 -- -- 76
2020-09-14 00:00:00 17.1 13 Noroeste 24 Noroeste 0 -- -- 89
2020-09-13 23:00:00 17.6 5 Noroeste 19 Norte 0 -- -- 77
2020-09-13 22:00:00 18.1 8 Oeste 23 Noroeste 0 -- -- 75
2020-09-13 21:00:00 16.8 8 Noroeste 17 Noroeste 0 -- -- 92
2020-09-13 20:00:00 18.2 4 Oeste 9 Oeste 0 -- -- 89
2020-09-13 19:00:00 19 2 Sur 14 Norte 0 -- -- 91
2020-09-13 18:00:00 20.6 4 Sudeste 13 Norte 0 -- -- 84
2020-09-13 17:00:00 19.7 6 Noroeste 12 Norte 0 -- -- 82
2020-09-13 16:00:00 20.8 6 Sudeste 12 Noroeste 0 -- -- 83
2020-09-13 15:00:00 19.2 6 Noroeste 13 Sudeste 0 -- -- 86
2020-09-13 14:00:00 22.9 8 Sudeste 20 Sur 0 -- -- 72
2020-09-13 13:00:00 24.2 8 Sudeste 18 Este 0 -- -- 66
2020-09-13 12:00:00 23.5 8 Sudeste 17 Sur 0 -- -- 72
2020-09-13 11:00:00 21.5 3 Sudeste 13 Sudeste 0 -- -- 78
2020-09-13 10:00:00 16.8 9 Sudeste 20 Sudeste 0 -- -- 97
2020-09-13 09:00:00 17.1 6 Sudeste 14 Norte 0 -- -- 96
2020-09-13 08:00:00 16.4 5 Este 14 Sudeste 0 -- -- 99
2020-09-13 07:00:00 16.4 0 Calma 10 Noroeste 0 -- -- 99
2020-09-13 06:00:00 16.7 2 Sudoeste 19 Sur 0 -- -- 99
2020-09-13 05:00:00 16.6 8 Sur 17 Sudeste 0 -- -- 99
2020-09-13 04:00:00 15.9 4 Noroeste 10 Noroeste 0 -- -- 98
2020-09-13 03:00:00 15.9 6 Noroeste 14 Noroeste 0 -- -- 98
2020-09-13 02:00:00 16.1 0 Calma 18 Noroeste 0 -- -- 97
2020-09-13 01:00:00 16.4 5 Noroeste 19 Noroeste 0.2 -- -- 98
2020-09-13 00:00:00 17.1 5 Oeste 15 Sudeste 0 -- -- 96
2020-09-12 23:00:00 17.6 9 Sudeste 15 Sudeste 0 -- -- 95
2020-09-12 22:00:00 17.6 10 Sudeste 20 Noroeste 0 -- -- 93
2020-09-12 21:00:00 17 8 Noroeste 15 Noroeste 0 -- -- 93
2020-09-12 20:00:00 18.2 4 Sudeste 10 Noroeste 0 -- -- 85
2020-09-12 19:00:00 18.7 3 Sudoeste 18 Noroeste 0 -- -- 84
2020-09-12 18:00:00 18.6 9 Noroeste 23 Oeste 0 -- -- 84
2020-09-12 17:00:00 19 10 Norte 29 Oeste 0 -- -- 80
2020-09-12 16:00:00 25.3 5 Sur 18 Sudeste 0 -- -- 59
2020-09-12 15:00:00 27.3 12 Sudeste 24 Sudeste 0 -- -- 52
2020-09-12 14:00:00 28 14 Sudeste 23 Sudeste 0 -- -- 52
2020-09-12 13:00:00 26.7 10 Sudeste 19 Sur 0 -- -- 58
2020-09-12 12:00:00 22.4 4 Sudoeste 12 Noroeste 0 -- -- 68
2020-09-12 11:00:00 21.1 4 Noroeste 13 Sur 0 -- -- 74
2020-09-12 10:00:00 19.4 3 Sur 10 Sudeste 0 -- -- 80
2020-09-12 09:00:00 16 8 Este 31 Norte 0 -- -- 94
2020-09-12 08:00:00 15.6 18 Norte 32 Noroeste 0 -- -- 93
2020-09-12 07:00:00 15.6 18 Noroeste 28 Noroeste 0 -- -- 94
2020-09-12 06:00:00 15.5 15 Noroeste 25 Noroeste 0 -- -- 94
2020-09-12 05:00:00 15.4 21 Noroeste 48 Noroeste 0 -- -- 99
2020-09-12 04:00:00 15.9 30 Noroeste 49 Norte 0 -- -- 99
2020-09-12 03:00:00 16.2 32 Noroeste 53 Noroeste 0 -- -- 99
2020-09-12 02:00:00 15.8 35 Noroeste 51 Noroeste 0 -- -- 98
2020-09-12 01:00:00 15.9 36 Noroeste 50 Noroeste 0 -- -- 98
2020-09-12 00:00:00 16.2 29 Noroeste 47 Noroeste 0 -- -- 97
2020-09-11 23:00:00 16.7 20 Noroeste 42 Noroeste 0 -- -- 92
2020-09-11 22:00:00 16.6 28 Noroeste 42 Noroeste 0 -- -- 93
2020-09-11 21:00:00 21.6 20 Noroeste 37 Noroeste 0 -- -- 39
2020-09-11 20:00:00 17.2 30 Noroeste 42 Noroeste 0 -- -- 83
2020-09-11 19:00:00 17.5 27 Noroeste 37 Noroeste 0 -- -- 90
2020-09-11 18:00:00 21.4 18 Noroeste 33 Noroeste 0 -- -- 49
2020-09-11 17:00:00 21 18 Noroeste 35 Noroeste 0 -- -- 67
2020-09-11 16:00:00 21.5 24 Noroeste 36 Noroeste 0 -- -- 71
2020-09-11 15:00:00 22.5 22 Noroeste 33 Noroeste 0 -- -- 66
2020-09-11 14:00:00 24.5 13 Noroeste 26 Noroeste 0 -- -- 53
2020-09-11 13:00:00 22.1 15 Noroeste 36 Noroeste 0 -- -- 66
2020-09-11 12:00:00 19.6 24 Noroeste 39 Norte 0 -- -- 78
2020-09-11 11:00:00 19.6 20 Noroeste 33 Noroeste 0 -- -- 77
2020-09-11 10:00:00 17.5 21 Norte 31 Norte 0 -- -- 72
2020-09-11 09:00:00 16.5 23 Norte 40 Norte 0 -- -- 91
2020-09-11 08:00:00 15.2 33 Noroeste 45 Noroeste 0 -- -- 98
2020-09-11 07:00:00 15.4 35 Noroeste 50 Norte 0 -- -- 98
2020-09-11 06:00:00 15.4 39 Noroeste 56 Noroeste 0 -- -- 98
2020-09-11 05:00:00 15.6 39 Noroeste 54 Noroeste 0 -- -- 97
2020-09-11 04:00:00 15.7 35 Noroeste 50 Noroeste 0 -- -- 97
2020-09-11 03:00:00 15.9 33 Noroeste 44 Norte 0 -- -- 96
2020-09-11 02:00:00 16.9 27 Norte 38 Norte 0 -- -- 86
2020-09-11 01:00:00 16.9 24 Norte 42 Norte 0 -- -- 72
2020-09-11 00:00:00 16.5 30 Noroeste 42 Noroeste 0 -- -- 83
2020-09-10 23:00:00 17.8 26 Noroeste 39 Noroeste 0 -- -- 70
2020-09-10 22:00:00 20.4 25 Noroeste 39 Noroeste 0 -- -- 36
2020-09-10 21:00:00 18 26 Noroeste 39 Noroeste 0 -- -- 64
2020-09-10 20:00:00 18.5 27 Noroeste 36 Noroeste 0 -- -- 73
2020-09-10 19:00:00 20.8 25 Noroeste 34 Noroeste 0 -- -- 67
2020-09-10 18:00:00 23.3 23 Noroeste 35 Norte 0 -- -- 52
2020-09-10 17:00:00 26.2 17 Noroeste 33 Norte 0 -- -- 32
2020-09-10 16:00:00 28.4 10 Noroeste 24 Norte 0 -- -- 21
2020-09-10 15:00:00 30 7 Oeste 27 Noroeste 0 -- -- 16
2020-09-10 14:00:00 28.1 15 Norte 28 Norte 0 -- -- 21
2020-09-10 13:00:00 28.6 11 Noroeste 21 Norte 0 -- -- 30
2020-09-10 12:00:00 28.6 5 Sudoeste 26 Noroeste 0 -- -- 30
2020-09-10 11:00:00 22.8 18 Norte 33 Norte 0 -- -- 47
2020-09-10 10:00:00 21.1 25 Noroeste 39 Norte 0 -- -- 46
2020-09-10 09:00:00 18 27 Norte 50 Norte 0 -- -- 73
2020-09-10 08:00:00 16.5 35 Norte 50 Norte 0 -- -- 89
2020-09-10 07:00:00 16.4 37 Noroeste 54 Norte 0 -- -- 94
2020-09-10 06:00:00 16.5 33 Noroeste 48 Noroeste 0 -- -- 92
2020-09-10 05:00:00 17.6 27 Norte 39 Norte 0 -- -- 80
2020-09-10 04:00:00 23.3 21 Norte 37 Nordeste 0 -- -- 24
2020-09-10 03:00:00 24.6 21 Nordeste 42 Nordeste 0 -- -- 21
2020-09-10 02:00:00 25 25 Nordeste 40 Nordeste 0 -- -- 19
2020-09-10 01:00:00 25.2 23 Nordeste 42 Nordeste 0 -- -- 18
2020-09-10 00:00:00 25.3 27 Nordeste 47 Nordeste 0 -- -- 18
2020-09-09 23:00:00 25.3 14 Norte 45 Nordeste 0 -- -- 15
2020-09-09 22:00:00 25.8 28 Nordeste 45 Nordeste 0 -- -- 14
2020-09-09 21:00:00 25.4 8 Noroeste 30 Noroeste 0 -- -- 16
2020-09-09 20:00:00 25.7 10 Noroeste 33 Este 0 -- -- 16
2020-09-09 19:00:00 26.5 20 Este 39 Este 0 -- -- 21
2020-09-09 18:00:00 27.7 17 Este 44 Este 0 -- -- 23
2020-09-09 17:00:00 29.3 14 Este 40 Este 0 -- -- 17
2020-09-09 16:00:00 29.8 23 Este 40 Este 0 -- -- 18
2020-09-09 15:00:00 30.4 14 Este 39 Este 0 -- -- 13
2020-09-09 14:00:00 30.5 11 Nordeste 30 Norte 0 -- -- 16
2020-09-09 13:00:00 30 12 Nordeste 33 Nordeste 0 -- -- 16
2020-09-09 12:00:00 31.5 10 Sudoeste 22 Sudoeste 0 -- -- 16
2020-09-09 11:00:00 30.5 9 Sudoeste 27 Sur 0 -- -- 15
2020-09-09 10:00:00 27.6 7 Sudoeste 40 Nordeste 0 -- -- 20
2020-09-09 09:00:00 25.8 25 Norte 45 Nordeste 0 -- -- 24
2020-09-09 08:00:00 24.6 30 Nordeste 41 Nordeste 0 -- -- 29
2020-09-09 07:00:00 24.2 18 Norte 39 Nordeste 0 -- -- 29
2020-09-09 06:00:00 23.7 21 Norte 42 Nordeste 0 -- -- 33
2020-09-09 05:00:00 24 24 Nordeste 46 Nordeste 0 -- -- 31
2020-09-09 04:00:00 25 28 Nordeste 43 Nordeste 0 -- -- 23
2020-09-09 03:00:00 25 26 Norte 42 Norte 0 -- -- 24
2020-09-09 02:00:00 24.6 26 Norte 46 Nordeste 0 -- -- 30
2020-09-09 01:00:00 24.9 31 Nordeste 44 Nordeste 0 -- -- 27
2020-09-09 00:00:00 25.1 12 Norte 31 Nordeste 0 -- -- 24
2020-09-08 23:00:00 25.2 13 Norte 33 Norte 0 -- -- 24
2020-09-08 22:00:00 25.4 8 Norte 26 Sudeste 0 -- -- 20
2020-09-08 21:00:00 25.6 9 Norte 26 Norte 0 -- -- 19
2020-09-08 20:00:00 26 9 Norte 32 Este 0 -- -- 14
2020-09-08 19:00:00 27.7 15 Nordeste 32 Este 0 -- -- 15
2020-09-08 18:00:00 28.8 18 Nordeste 37 Este 0 -- -- 16
2020-09-08 17:00:00 30.6 14 Este 37 Este 0 -- -- 19
2020-09-08 16:00:00 32.8 15 Este 37 Este 0 -- -- 17
2020-09-08 15:00:00 36.8 12 Sudeste 33 Este 0 -- -- 17
2020-09-08 14:00:00 34.1 17 Este 34 Sudeste 0 -- -- 17
2020-09-08 13:00:00 36.7 12 Sudeste 24 Sudeste 0 -- -- 23
2020-09-08 12:00:00 30 14 Este 38 Este 0 -- -- 32
2020-09-08 11:00:00 28 22 Este 51 Este 0 -- -- 16
2020-09-08 10:00:00 30 19 Este 44 Nordeste 0 -- -- 16
2020-09-08 09:00:00 28.4 29 Este 55 Nordeste 0 -- -- 14
2020-09-08 08:00:00 27.1 28 Este 52 Este 0 -- -- 19
2020-09-08 07:00:00 27 28 Este 53 Este 0 -- -- 24
2020-09-08 06:00:00 26.6 27 Este 53 Este 0 -- -- 23
2020-09-08 05:00:00 26.9 26 Este 49 Nordeste 0 -- -- 15
2020-09-08 04:00:00 26.3 13 Nordeste 36 Nordeste 0 -- -- 16
2020-09-08 03:00:00 26.3 14 Nordeste 35 Este 0 -- -- 17
2020-09-08 02:00:00 25.9 10 Este 30 Este 0 -- -- 22
2020-09-08 01:00:00 25.7 9 Nordeste 32 Norte 0 -- -- 24
2020-09-08 00:00:00 26.1 12 Norte 28 Nordeste 0 -- -- 37
2020-09-07 23:00:00 26 11 Norte 27 Norte 0 -- -- 35
2020-09-07 22:00:00 25.9 6 Norte 28 Sudeste 0 -- -- 35
2020-09-07 21:00:00 25.7 6 Noroeste 21 Noroeste 0 -- -- 37
2020-09-07 20:00:00 25.2 6 Oeste 22 Norte 0 -- -- 42
2020-09-07 19:00:00 26.8 7 Noroeste 18 Noroeste 0 -- -- 38
2020-09-07 18:00:00 29.4 10 Nordeste 19 Nordeste 0 -- -- 35
2020-09-07 17:00:00 30.6 4 Oeste 15 Noroeste 0 -- -- 38
2020-09-07 16:00:00 32.1 5 Este 12 Sudoeste 0 -- -- 41
2020-09-07 15:00:00 32.1 4 Sudeste 12 Sudeste 0 -- -- 42
2020-09-07 14:00:00 33.5 8 Sudeste 13 Sudeste 0 -- -- 36
2020-09-07 13:00:00 33.2 5 Sudeste 15 Noroeste 0 -- -- 32
2020-09-07 12:00:00 31 5 Oeste 15 Oeste 0 -- -- 33
2020-09-07 11:00:00 30.4 6 Sudeste 10 Sudeste 0 -- -- 30
2020-09-07 10:00:00 25.1 5 Norte 14 Norte 0 -- -- 35
2020-09-07 09:00:00 23.5 4 Este 10 Nordeste 0 -- -- 30
2020-09-07 08:00:00 19.6 8 Este 16 Este 0 -- -- 54
2020-09-07 07:00:00 20.4 5 Noroeste 18 Sudeste 0 -- -- 49
2020-09-07 06:00:00 20.9 9 Noroeste 24 Oeste 0.2 -- -- 58
2020-09-07 05:00:00 20.5 14 Sur 26 Sudeste 0 -- -- 32
2020-09-07 04:00:00 19.2 13 Sudeste 22 Sudeste 0 -- -- 56
2020-09-07 03:00:00 20 9 Sudeste 13 Este 0 -- -- 37
2020-09-07 02:00:00 20.6 5 Este 10 Sudeste 0 -- -- 31
2020-09-07 01:00:00 20 4 Sudeste 9 Este 0 -- -- 35
2020-09-07 00:00:00 19.7 2 Norte 14 Nordeste 0 -- -- 39
2020-09-06 23:00:00 19.1 2 Norte 19 Norte 0 -- -- 43
2020-09-06 22:00:00 20.5 10 Norte 20 Noroeste 0 -- -- 37
2020-09-06 21:00:00 21 12 Norte 19 Norte 0 -- -- 63
2020-09-06 20:00:00 19.9 5 Norte 10 Noroeste 0 -- -- 70
2020-09-06 19:00:00 23.5 3 Este 10 Sudeste 0 -- -- 61
2020-09-06 18:00:00 25.2 4 Sudeste 12 Sudeste 0 -- -- 58
2020-09-06 17:00:00 26.5 7 Sudeste 17 Sur 0 -- -- 53
2020-09-06 16:00:00 28.9 10 Sudeste 18 Sudeste 0 -- -- 45
2020-09-06 15:00:00 28.4 10 Sudeste 21 Sur 0 -- -- 47
2020-09-06 14:00:00 30.2 13 Sudeste 20 Sur 0 -- -- 45
2020-09-06 13:00:00 29.3 9 Sudeste 17 Sudeste 0 -- -- 47
2020-09-06 12:00:00 26.1 8 Sudeste 19 Sudeste 0 -- -- 55
2020-09-06 11:00:00 23.7 5 Sudeste 15 Sudeste 0 -- -- 57
2020-09-06 10:00:00 21 8 Norte 30 Noroeste 0 -- -- 56
2020-09-06 09:00:00 18.1 15 Norte 30 Noroeste 0 -- -- 66
2020-09-06 08:00:00 15.2 4 Este 35 Norte 0 -- -- 78
2020-09-06 07:00:00 15.1 3 Sudeste 28 Norte 0 -- -- 79
2020-09-06 06:00:00 15.3 20 Norte 33 Norte 0 -- -- 84
2020-09-06 05:00:00 15.2 20 Norte 31 Nordeste 0 -- -- 87
2020-09-06 04:00:00 15 20 Norte 28 Norte 0 -- -- 88
2020-09-06 03:00:00 15.7 22 Norte 31 Norte 0 -- -- 75
2020-09-06 02:00:00 16.6 18 Norte 28 Norte 0 -- -- 64
2020-09-06 01:00:00 16.7 19 Norte 35 Norte 0 -- -- 63
2020-09-06 00:00:00 15.6 26 Norte 41 Norte 0 -- -- 92
2020-09-05 23:00:00 16 27 Norte 40 Norte 0 -- -- 91
2020-09-05 22:00:00 17.4 17 Noroeste 34 Noroeste 0 -- -- 78
2020-09-05 21:00:00 17.9 16 Noroeste 36 Norte 0 -- -- 71
2020-09-05 20:00:00 17.3 23 Norte 37 Noroeste 0 -- -- 89
2020-09-05 19:00:00 20.9 19 Noroeste 50 Noroeste 0 -- -- 67
2020-09-05 18:00:00 19.4 30 Noroeste 48 Noroeste 0 -- -- 81
2020-09-05 17:00:00 22.9 11 Noroeste 27 Noroeste 0 -- -- 67
2020-09-05 16:00:00 26.1 5 Sur 17 Sudeste 0 -- -- 56
2020-09-05 15:00:00 26.6 5 Sur 15 Sudeste 0 -- -- 55
2020-09-05 14:00:00 28.7 10 Sudeste 17 Sudeste 0 -- -- 51
2020-09-05 13:00:00 27.2 7 Sudeste 19 Sur 0 -- -- 56
2020-09-05 12:00:00 26.3 9 Sudeste 16 Sudeste 0 -- -- 58
2020-09-05 11:00:00 25.2 10 Sudeste 16 Sudeste 0 -- -- 59
2020-09-05 10:00:00 21.5 3 Oeste 15 Norte 0 -- -- 67
2020-09-05 09:00:00 18 13 Norte 27 Norte 0 -- -- 80
2020-09-05 08:00:00 16 2 Norte 10 Norte 0 -- -- 85
2020-09-05 07:00:00 16.8 5 Noroeste 24 Norte 0 -- -- 85
2020-09-05 06:00:00 16.8 19 Norte 32 Norte 0 -- -- 88
2020-09-05 05:00:00 21 8 Noroeste 20 Noroeste 0 -- -- 54
2020-09-05 04:00:00 21.1 3 Sudoeste 18 Noroeste 0 -- -- 35
2020-09-05 03:00:00 23.2 10 Noroeste 20 Noroeste 0 -- -- 25
2020-09-05 02:00:00 23.5 10 Noroeste 23 Noroeste 0 -- -- 22
2020-09-05 01:00:00 23.1 4 Sur 26 Noroeste 0 -- -- 32
2020-09-05 00:00:00 22.9 20 Noroeste 38 Noroeste 0 -- -- 24
2020-09-04 23:00:00 22.9 22 Noroeste 35 Noroeste 0 -- -- 25
2020-09-04 22:00:00 23.1 23 Noroeste 33 Noroeste 0 -- -- 23
2020-09-04 21:00:00 23.2 14 Noroeste 30 Noroeste 0 -- -- 25
2020-09-04 20:00:00 23.4 17 Noroeste 30 Noroeste 0 -- -- 27
2020-09-04 19:00:00 24.8 15 Noroeste 32 Noroeste 0 -- -- 36
2020-09-04 18:00:00 28.7 9 Noroeste 28 Noroeste 0 -- -- 27
2020-09-04 17:00:00 29.8 9 Oeste 20 Oeste 0 -- -- 27
2020-09-04 16:00:00 30.3 6 Oeste 19 Noroeste 0 -- -- 27
2020-09-04 15:00:00 30.2 6 Sudeste 16 Sudeste 0 -- -- 46
2020-09-04 14:00:00 29.4 5 Sudoeste 16 Norte 0 -- -- 37
2020-09-04 13:00:00 28.8 6 Sudeste 21 Noroeste 0 -- -- 34
2020-09-04 12:00:00 27.1 5 Noroeste 20 Norte 0 -- -- 38
2020-09-04 11:00:00 24.2 6 Nordeste 22 Noroeste 0 -- -- 54
2020-09-04 10:00:00 21.4 5 Norte 31 Noroeste 0 -- -- 60
2020-09-04 09:00:00 20.9 8 Norte 30 Noroeste 0 -- -- 46
2020-09-04 08:00:00 19.6 19 Noroeste 28 Noroeste 0 -- -- 32
2020-09-04 07:00:00 20.2 20 Noroeste 30 Noroeste 0 -- -- 22
2020-09-04 06:00:00 20.2 19 Norte 29 Norte 0 -- -- 19
2020-09-04 05:00:00 20.4 18 Norte 30 Noroeste 0 -- -- 23
2020-09-04 04:00:00 20.9 20 Norte 28 Norte 0 -- -- 24
2020-09-04 03:00:00 21.3 22 Norte 29 Norte 0 -- -- 17
2020-09-04 02:00:00 21.6 15 Norte 21 Norte 0 -- -- 12
2020-09-04 01:00:00 20.6 8 Norte 16 Norte 0 -- -- 14
2020-09-04 00:00:00 21.1 8 Norte 21 Norte 0 -- -- 26
2020-09-03 23:00:00 22 17 Norte 22 Norte 0 -- -- 13
2020-09-03 22:00:00 21.4 10 Norte 15 Norte 0 -- -- 25
2020-09-03 21:00:00 21.2 7 Norte 11 Norte 0 -- -- 48
2020-09-03 20:00:00 21.4 7 Noroeste 13 Noroeste 0 -- -- 65
2020-09-03 19:00:00 26.2 4 Oeste 10 Oeste 0 -- -- 55
2020-09-03 18:00:00 25.9 5 Oeste 12 Oeste 0 -- -- 58
2020-09-03 17:00:00 26.7 5 Sudeste 14 Sudeste 0 -- -- 57
2020-09-03 16:00:00 28.5 8 Sudeste 14 Sudeste 0 -- -- 51
2020-09-03 15:00:00 29.7 8 Sudeste 17 Sur 0 -- -- 47
2020-09-03 14:00:00 29.2 7 Sudeste 17 Sur 0 -- -- 49
2020-09-03 13:00:00 28 7 Sur 18 Sudeste 0 -- -- 51
2020-09-03 12:00:00 26.7 9 Sudeste 16 Sur 0 -- -- 55
2020-09-03 11:00:00 24.1 6 Sudeste 13 Sur 0 -- -- 57
2020-09-03 10:00:00 23 5 Sudeste 10 Sudeste 0 -- -- 56
2020-09-03 09:00:00 19.4 2 Sur 7 Noroeste 0 -- -- 44
2020-09-03 08:00:00 16.1 0 Calma 8 Este 0 -- -- 43
2020-09-03 07:00:00 16.7 2 Nordeste 11 Este 0 -- -- 43
2020-09-03 06:00:00 16.1 8 Este 13 Nordeste 0 -- -- 26
2020-09-03 05:00:00 18.4 9 Este 16 Este 0 -- -- 24
2020-09-03 04:00:00 16 4 Este 15 Nordeste 0 -- -- 57
2020-09-03 03:00:00 18.7 8 Este 24 Este 0 -- -- 58
2020-09-03 02:00:00 19.8 15 Este 26 Este 0 -- -- 27
2020-09-03 01:00:00 19.4 15 Este 21 Este 0 -- -- 36
2020-09-03 00:00:00 18.3 15 Este 25 Este 0 -- -- 49
2020-09-02 23:00:00 18.5 17 Este 24 Este 0 -- -- 44
2020-09-02 22:00:00 17.2 13 Este 16 Este 0 -- -- 58
2020-09-02 21:00:00 16.1 8 Este 10 Este 0 -- -- 67
2020-09-02 20:00:00 18.4 2 Este 4 Noroeste 0 -- -- 63
2020-09-02 19:00:00 24.2 3 Este 12 Sudeste 0 -- -- 44
2020-09-02 18:00:00 26.1 8 Sudeste 16 Sur 0 -- -- 43
2020-09-02 17:00:00 28.2 9 Sudeste 18 Sudeste 0 -- -- 48
2020-09-02 16:00:00 29.8 11 Sudeste 18 Sudeste 0 -- -- 49
2020-09-02 15:00:00 29.6 11 Sudeste 21 Sudeste 0 -- -- 52
2020-09-02 14:00:00 30 10 Sudeste 18 Sudeste 0 -- -- 49
2020-09-02 13:00:00 28.9 9 Sudeste 15 Sudeste 0 -- -- 52
2020-09-02 12:00:00 27 8 Sur 14 Sudeste 0 -- -- 55
2020-09-02 11:00:00 24.1 5 Sudeste 12 Sur 0 -- -- 60
2020-09-02 10:00:00 21.7 3 Sudoeste 8 Sudeste 0 -- -- 60
2020-09-02 09:00:00 19.6 4 Sudeste 14 Este 0 -- -- 62
2020-09-02 08:00:00 16.3 8 Este 24 Este 0 -- -- 55
2020-09-02 07:00:00 19.1 17 Este 26 Este 0 -- -- 43
2020-09-02 06:00:00 19.7 13 Este 24 Nordeste 0 -- -- 35
2020-09-02 05:00:00 19.4 11 Este 27 Sudeste 0 -- -- 39
2020-09-02 04:00:00 19.3 16 Este 26 Este 0 -- -- 45
2020-09-02 03:00:00 16.8 11 Este 24 Nordeste 0 -- -- 64
2020-09-02 02:00:00 17 14 Este 20 Este 0 -- -- 57
2020-09-02 01:00:00 14.4 3 Noroeste 26 Norte 0 -- -- 86
2020-09-02 00:00:00 16.2 16 Norte 31 Norte 0 -- -- 99
2020-09-01 23:00:00 16.2 8 Norte 36 Noroeste 0 -- -- 98
2020-09-01 22:00:00 16.2 14 Noroeste 31 Noroeste 0 -- -- 98
2020-09-01 21:00:00 16.4 8 Norte 25 Nordeste 0 -- -- 97
2020-09-01 20:00:00 17 8 Noroeste 22 Noroeste 0 -- -- 94
2020-09-01 19:00:00 19.8 9 Norte 25 Norte 0 -- -- 81
2020-09-01 18:00:00 20.9 7 Noroeste 31 Noroeste 0 -- -- 76
2020-09-01 17:00:00 20.4 15 Noroeste 32 Oeste 0 -- -- 79
2020-09-01 16:00:00 22.1 6 Oeste 30 Noroeste 0 -- -- 75
2020-09-01 15:00:00 20.6 12 Norte 24 Norte 0 -- -- 82
2020-09-01 14:00:00 19.9 10 Noroeste 23 Noroeste 0 -- -- 85
2020-09-01 13:00:00 19.5 6 Oeste 17 Sudeste 0 -- -- 88
2020-09-01 12:00:00 17.4 5 Noroeste 16 Este 0 -- -- 97
2020-09-01 11:00:00 17.4 4 Oeste 17 Noroeste 0 -- -- 96
2020-09-01 10:00:00 16.5 5 Noroeste 15 Noroeste 0 -- -- 100
2020-09-01 09:00:00 16.2 5 Noroeste 15 Noroeste 0 -- -- 100
2020-09-01 08:00:00 16 5 Noroeste 21 Oeste 0 -- -- 99
2020-09-01 07:00:00 15.8 5 Noroeste 25 Noroeste 0 -- -- 98
2020-09-01 06:00:00 15.7 5 Noroeste 14 Norte 0 -- -- 97
2020-09-01 05:00:00 15.9 5 Norte 17 Oeste 0 -- -- 96
2020-09-01 04:00:00 15.7 8 Norte 26 Noroeste 0 -- -- 96
2020-09-01 03:00:00 15.3 9 Noroeste 24 Noroeste 0 -- -- 95
2020-09-01 02:00:00 15.3 10 Noroeste 31 Noroeste 0 -- -- 97
2020-09-01 01:00:00 15.1 17 Noroeste 39 Noroeste 0 -- -- 98
2020-09-01 00:00:00 15.3 14 Noroeste 45 Noroeste 0 -- -- 100
2020-08-31 23:00:00 15.1 21 Noroeste 50 Oeste 0 -- -- 100
2020-08-31 22:00:00 15.1 27 Noroeste 54 Noroeste 0 -- -- 99
2020-08-31 21:00:00 14.9 32 Noroeste 57 Noroeste 0 -- -- 98
2020-08-31 20:00:00 15.1 34 Noroeste 58 Noroeste 0 -- -- 97
2020-08-31 19:00:00 15.8 37 Noroeste 63 Noroeste 0 -- -- 89
2020-08-31 18:00:00 15.7 38 Noroeste 61 Noroeste 0 -- -- 88
2020-08-31 17:00:00 16 38 Noroeste 65 Noroeste 0 -- -- 86
2020-08-31 16:00:00 16.8 39 Noroeste 61 Noroeste 0 -- -- 85
2020-08-31 15:00:00 16.6 40 Noroeste 60 Noroeste 0 -- -- 85
2020-08-31 14:00:00 16.5 34 Noroeste 53 Noroeste 0 -- -- 82
2020-08-31 13:00:00 16.3 15 Noroeste 45 Oeste 0 -- -- 88
2020-08-31 12:00:00 16 8 Noroeste 51 Noroeste 0 -- -- 91
2020-08-31 11:00:00 16 15 Noroeste 37 Norte 0 -- -- 90
2020-08-31 10:00:00 15.1 18 Noroeste 42 Noroeste 0 -- -- 94
2020-08-31 09:00:00 14.5 17 Noroeste 40 Noroeste 0 -- -- 97
2020-08-31 08:00:00 14.1 14 Noroeste 36 Noroeste 0 -- -- 98
2020-08-31 07:00:00 14 13 Noroeste 44 Noroeste 0 -- -- 98
2020-08-31 06:00:00 14 18 Noroeste 41 Noroeste 0 -- -- 96
2020-08-31 05:00:00 14 10 Noroeste 36 Noroeste 0 -- -- 97
2020-08-31 04:00:00 14 13 Noroeste 37 Noroeste 0 -- -- 96
2020-08-31 03:00:00 14.4 12 Noroeste 43 Noroeste 0 -- -- 98
2020-08-31 02:00:00 14.3 14 Noroeste 40 Noroeste 0 -- -- 97
2020-08-31 01:00:00 14 12 Noroeste 45 Oeste 0 -- -- 97
2020-08-31 00:00:00 14.3 13 Noroeste 42 Noroeste 0 -- -- 97
2020-08-30 23:00:00 14.4 15 Noroeste 49 Noroeste 0 -- -- 97
2020-08-30 22:00:00 14.4 21 Noroeste 54 Oeste 0 -- -- 98
2020-08-30 21:00:00 14.4 17 Noroeste 57 Noroeste 0 -- -- 97
2020-08-30 20:00:00 14.6 22 Noroeste 59 Noroeste 0 -- -- 97
2020-08-30 19:00:00 14.8 14 Noroeste 51 Noroeste 0 -- -- 92
2020-08-30 18:00:00 14.9 18 Noroeste 45 Noroeste 0 -- -- 93
2020-08-30 17:00:00 15.5 14 Noroeste 44 Noroeste 0 -- -- 92
2020-08-30 16:00:00 15.8 9 Noroeste 44 Noroeste 0 -- -- 92
2020-08-30 15:00:00 14.5 15 Norte 43 Oeste 0 -- -- 99
2020-08-30 14:00:00 14.6 16 Noroeste 46 Noroeste 1 -- -- 99
2020-08-30 13:00:00 14.9 13 Noroeste 50 Noroeste 0.6 -- -- 99
2020-08-30 12:00:00 15.5 19 Noroeste 48 Noroeste 0 -- -- 94
2020-08-30 11:00:00 14.8 14 Noroeste 43 Noroeste 0 -- -- 97
2020-08-30 10:00:00 14.2 14 Noroeste 41 Noroeste 0 -- -- 100
2020-08-30 09:00:00 14.1 9 Noroeste 40 Este 1.4 -- -- 100
2020-08-30 08:00:00 14.2 14 Noroeste 54 Noroeste 1 -- -- 100
2020-08-30 07:00:00 13.6 21 Noroeste 54 Noroeste 0 -- -- 98
2020-08-30 06:00:00 13.6 20 Noroeste 57 Noroeste 0.2 -- -- 100
2020-08-30 05:00:00 14.4 10 Sudoeste 49 Noroeste 1 -- -- 100
2020-08-30 04:00:00 14.1 16 Noroeste 51 Noroeste 0 -- -- 100
2020-08-30 03:00:00 14.2 18 Noroeste 44 Noroeste 0 -- -- 100
2020-08-30 02:00:00 14.4 14 Noroeste 59 Noroeste 0 -- -- 100
2020-08-30 01:00:00 14.8 14 Norte 53 Nordeste 0 -- -- 100
2020-08-30 00:00:00 15 12 Norte 62 Noroeste 0.6 -- -- 100
2020-08-29 23:00:00 15.7 17 Noroeste 44 Oeste 0.4 -- -- 100
2020-08-29 22:00:00 15.5 13 Noroeste 46 Oeste 0 -- -- 100
2020-08-29 21:00:00 15.1 11 Noroeste 37 Oeste 0 -- -- 100
2020-08-29 20:00:00 15.1 13 Oeste 48 Oeste 0 -- -- 100
2020-08-29 19:00:00 16.1 13 Noroeste 54 Noroeste 0 -- -- 100
2020-08-29 18:00:00 16.3 17 Noroeste 54 Noroeste 0 -- -- 100
2020-08-29 17:00:00 17.3 18 Noroeste 50 Oeste 1.8 -- -- 100
2020-08-29 16:00:00 17.4 13 Noroeste 53 Noroeste 3.6 -- -- 99
2020-08-29 15:00:00 17.5 16 Noroeste 44 Noroeste 0.4 -- -- 97
2020-08-29 14:00:00 18.2 16 Noroeste 41 Noroeste 0 -- -- 92
2020-08-29 13:00:00 18.9 13 Noroeste 42 Noroeste 0 -- -- 84
2020-08-29 12:00:00 18.2 12 Noroeste 45 Noroeste 0 -- -- 87
2020-08-29 11:00:00 17.3 19 Noroeste 51 Norte 0 -- -- 88
2020-08-29 10:00:00 16.4 17 Norte 50 Noroeste 0 -- -- 91
2020-08-29 09:00:00 15.7 22 Norte 47 Norte 0 -- -- 95
2020-08-29 08:00:00 15.1 24 Noroeste 53 Noroeste 0 -- -- 98
2020-08-29 07:00:00 15.2 26 Noroeste 60 Noroeste 0 -- -- 99
2020-08-29 06:00:00 15.4 23 Norte 49 Noroeste 0 -- -- 99
2020-08-29 05:00:00 15.6 23 Noroeste 49 Noroeste 0 -- -- 98
2020-08-29 04:00:00 15.6 32 Noroeste 55 Noroeste 0 -- -- 97
2020-08-29 03:00:00 16 29 Noroeste 52 Norte 0 -- -- 96
2020-08-29 02:00:00 16.3 30 Noroeste 48 Noroeste 0 -- -- 92
2020-08-29 01:00:00 16.8 27 Noroeste 47 Norte 0 -- -- 85
2020-08-29 00:00:00 18 25 Norte 39 Norte 0 -- -- 59
2020-08-28 23:00:00 19.4 23 Norte 45 Norte 0 -- -- 46
2020-08-28 22:00:00 19.4 24 Norte 41 Norte 0 -- -- 51
2020-08-28 21:00:00 22.2 20 Norte 44 Nordeste 0 -- -- 29
2020-08-28 20:00:00 23.2 21 Norte 44 Norte 0 -- -- 29
2020-08-28 19:00:00 24.9 13 Norte 37 Nordeste 0 -- -- 30
2020-08-28 18:00:00 27 18 Norte 32 Norte 0 -- -- 20
2020-08-28 17:00:00 28.8 9 Norte 27 Noroeste 0 -- -- 21
2020-08-28 16:00:00 30.6 10 Noroeste 23 Noroeste 0 -- -- 20
2020-08-28 15:00:00 31.5 10 Nordeste 30 Nordeste 0 -- -- 17
2020-08-28 14:00:00 32.6 8 Este 42 Este 0 -- -- 17
2020-08-28 13:00:00 33.6 15 Este 43 Este 0 -- -- 16
2020-08-28 12:00:00 31.3 22 Este 49 Este 0 -- -- 16
2020-08-28 11:00:00 30.3 23 Este 47 Este 0 -- -- 19
2020-08-28 10:00:00 29.3 14 Nordeste 34 Este 0 -- -- 19
2020-08-28 09:00:00 27.4 11 Nordeste 45 Este 0 -- -- 17
2020-08-28 08:00:00 26.6 12 Este 45 Este 0 -- -- 16
2020-08-28 07:00:00 26.4 15 Este 47 Nordeste 0 -- -- 18
2020-08-28 06:00:00 26.5 15 Este 42 Nordeste 0 -- -- 17
2020-08-28 05:00:00 27 14 Norte 41 Este 0 -- -- 15
2020-08-28 04:00:00 27.8 13 Norte 38 Nordeste 0 -- -- 15
2020-08-28 03:00:00 28.2 17 Norte 50 Nordeste 0 -- -- 13
2020-08-28 02:00:00 28.4 21 Norte 45 Nordeste 0 -- -- 14
2020-08-28 01:00:00 29.1 13 Norte 34 Noroeste 0 -- -- 19
2020-08-28 00:00:00 28.9 11 Norte 39 Norte 0 -- -- 19
2020-08-27 23:00:00 28.8 16 Norte 38 Este 0 -- -- 15
2020-08-27 22:00:00 28.5 19 Norte 41 Nordeste 0 -- -- 15
2020-08-27 21:00:00 28.6 17 Norte 37 Nordeste 0 -- -- 14
2020-08-27 20:00:00 29 14 Norte 39 Nordeste 0 -- -- 21
2020-08-27 19:00:00 30.3 14 Norte 39 Nordeste 0 -- -- 22
2020-08-27 18:00:00 31.9 18 Norte 37 Norte 0 -- -- 22
2020-08-27 17:00:00 33.1 23 Nordeste 39 Nordeste 0 -- -- 21
2020-08-27 16:00:00 34.8 19 Nordeste 36 Norte 0 -- -- 19
2020-08-27 15:00:00 35.5 16 Nordeste 31 Nordeste 0 -- -- 19
2020-08-27 14:00:00 36.3 13 Nordeste 27 Noroeste 0 -- -- 19
2020-08-27 13:00:00 36.2 11 Norte 28 Nordeste 0 -- -- 20
2020-08-27 12:00:00 35.7 9 Norte 22 Nordeste 0 -- -- 22
2020-08-27 11:00:00 33.8 11 Nordeste 22 Nordeste 0 -- -- 26
2020-08-27 10:00:00 31.4 12 Norte 23 Noroeste 0 -- -- 31
2020-08-27 09:00:00 30.2 15 Norte 23 Noroeste 0 -- -- 33
2020-08-27 08:00:00 29.9 20 Noroeste 27 Noroeste 0 -- -- 35
2020-08-27 07:00:00 29.7 22 Noroeste 28 Noroeste 0 -- -- 34
2020-08-27 06:00:00 29.2 23 Noroeste 32 Noroeste 0 -- -- 36
2020-08-27 05:00:00 29.1 25 Noroeste 34 Noroeste 0 -- -- 38
2020-08-27 04:00:00 29.4 24 Noroeste 36 Noroeste 0 -- -- 34
2020-08-27 03:00:00 29.2 27 Noroeste 34 Noroeste 0 -- -- 36
2020-08-27 02:00:00 29.3 28 Noroeste 35 Noroeste 0 -- -- 37
2020-08-27 01:00:00 29.5 23 Noroeste 34 Noroeste 0 -- -- 36
2020-08-27 00:00:00 29.7 18 Norte 26 Norte 0 -- -- 36
2020-08-26 23:00:00 30 13 Norte 21 Norte 0 -- -- 36
2020-08-26 22:00:00 28.2 5 Norte 10 Norte 0 -- -- 39
2020-08-26 21:00:00 28 0 Calma 9 Norte 0 -- -- 39
2020-08-26 20:00:00 30 6 Noroeste 21 Noroeste 0 -- -- 37
2020-08-26 19:00:00 31.7 11 Oeste 19 Sur 0 -- -- 36
2020-08-26 18:00:00 33.5 7 Sur 20 Sudeste 0 -- -- 35
2020-08-26 17:00:00 35.3 11 Sur 30 Sur 0 -- -- 32
2020-08-26 16:00:00 35.9 14 Sur 27 Sur 0 -- -- 31
2020-08-26 15:00:00 36.7 13 Sur 26 Sur 0 -- -- 27
2020-08-26 14:00:00 36.8 12 Sudeste 20 Sudeste 0 -- -- 28
2020-08-26 13:00:00 37.6 12 Sur 24 Sur 0 -- -- 23
2020-08-26 12:00:00 36.7 10 Sudeste 20 Sudeste 0 -- -- 21
2020-08-26 11:00:00 33.8 17 Sudeste 49 Sudeste 0 -- -- 23
2020-08-26 10:00:00 30.9 17 Sudeste 41 Sudeste 0 -- -- 24
2020-08-26 09:00:00 30.9 20 Sudeste 45 Este 0 -- -- 19
2020-08-26 08:00:00 30.4 27 Este 49 Sudeste 0 -- -- 18
2020-08-26 07:00:00 29.1 29 Este 46 Este 0 -- -- 21
2020-08-26 06:00:00 28.5 23 Este 41 Este 0 -- -- 24
2020-08-26 05:00:00 26.2 11 Sudeste 23 Sudeste 0 -- -- 27
2020-08-26 04:00:00 27.9 14 Este 33 Nordeste 0 -- -- 30
2020-08-26 03:00:00 29.6 17 Norte 33 Norte 0 -- -- 22
2020-08-26 02:00:00 29.6 17 Norte 24 Norte 0 -- -- 21
2020-08-26 01:00:00 27.2 0 Calma 3 Sudeste 0 -- -- 20
2020-08-26 00:00:00 27.8 2 Oeste 9 Noroeste 0 -- -- 18
2020-08-25 23:00:00 28 8 Noroeste 16 Noroeste 0 -- -- 23
2020-08-25 22:00:00 26.5 3 Nordeste 15 Este 0 -- -- 27
2020-08-25 21:00:00 26.5 7 Este 9 Sudeste 0 -- -- 31
2020-08-25 20:00:00 27.3 4 Este 15 Este 0 -- -- 30
2020-08-25 19:00:00 31.7 12 Este 21 Este 0 -- -- 26
2020-08-25 18:00:00 32.8 8 Nordeste 20 Este 0 -- -- 24
2020-08-25 17:00:00 32.3 7 Este 21 Este 0 -- -- 42
2020-08-25 16:00:00 33.8 9 Sudeste 18 Sudeste 0 -- -- 39
2020-08-25 15:00:00 33.9 10 Sudeste 19 Este 0 -- -- 39
2020-08-25 14:00:00 34.7 9 Sudeste 21 Sudeste 0 -- -- 37
2020-08-25 13:00:00 35.6 13 Sudeste 19 Sudeste 0 -- -- 32
2020-08-25 12:00:00 33.9 10 Sudeste 20 Sudeste 0 -- -- 26
2020-08-25 11:00:00 30 5 Sur 17 Sudeste 0 -- -- 23
2020-08-25 10:00:00 26.8 5 Oeste 37 Sur 0 -- -- 27
2020-08-25 09:00:00 24.3 7 Este 32 Sudoeste 0 -- -- 28
2020-08-25 08:00:00 22.4 7 Sur 27 Sudeste 0 -- -- 30
2020-08-25 07:00:00 21.7 8 Sudeste 36 Sudeste 0 -- -- 37
2020-08-25 06:00:00 21.5 8 Sur 36 Nordeste 0 -- -- 36
2020-08-25 05:00:00 20.4 12 Sudoeste 32 Sur 0 -- -- 40
2020-08-25 04:00:00 19.2 9 Sudoeste 42 Nordeste 0 -- -- 51
2020-08-25 03:00:00 19 24 Norte 58 Nordeste 0 -- -- 56
2020-08-25 02:00:00 17.4 39 Norte 56 Norte 0 -- -- 75
2020-08-25 01:00:00 17.6 38 Norte 58 Norte 0 -- -- 71
2020-08-25 00:00:00 17.5 37 Norte 54 Norte 0 -- -- 78
2020-08-24 23:00:00 16.8 37 Norte 55 Norte 0 -- -- 93
2020-08-24 22:00:00 16.9 36 Norte 53 Norte 0 -- -- 89
2020-08-24 21:00:00 17.6 32 Norte 53 Norte 0 -- -- 84
2020-08-24 20:00:00 20.6 32 Norte 54 Norte 0 -- -- 55
2020-08-24 19:00:00 24.2 13 Noroeste 46 Norte 0 -- -- 31
2020-08-24 18:00:00 26.6 9 Sudoeste 40 Sudeste 0 -- -- 26
2020-08-24 17:00:00 26.9 10 Oeste 37 Este 0 -- -- 28
2020-08-24 16:00:00 26.3 14 Noroeste 42 Norte 0 -- -- 31
2020-08-24 15:00:00 25.4 17 Nordeste 48 Este 0 -- -- 34
2020-08-24 14:00:00 24.9 14 Noroeste 52 Este 0 -- -- 37
2020-08-24 13:00:00 22.5 22 Norte 53 Nordeste 0 -- -- 52
2020-08-24 12:00:00 22.9 18 Norte 64 Nordeste 0 -- -- 45
2020-08-24 11:00:00 21.9 19 Noroeste 53 Norte 0 -- -- 41
2020-08-24 10:00:00 22.3 15 Noroeste 46 Nordeste 0 -- -- 37
2020-08-24 09:00:00 21.7 14 Oeste 37 Noroeste 0 -- -- 29
2020-08-24 08:00:00 20.5 15 Noroeste 39 Noroeste 0 -- -- 30
2020-08-24 07:00:00 20.8 14 Noroeste 30 Noroeste 0 -- -- 20
2020-08-24 06:00:00 20.4 9 Oeste 35 Sur 0 -- -- 19
2020-08-24 05:00:00 20.1 9 Oeste 32 Norte 0 -- -- 15
2020-08-24 04:00:00 19.7 9 Sudoeste 29 Sudoeste 0 -- -- 30
2020-08-24 03:00:00 19.8 13 Sudoeste 41 Sudoeste 0 -- -- 36
2020-08-24 02:00:00 19.7 6 Sudoeste 32 Nordeste 0 -- -- 46
2020-08-24 01:00:00 21 7 Oeste 49 Nordeste 0 -- -- 25
2020-08-24 00:00:00 21.5 32 Norte 48 Nordeste 0 -- -- 26
2020-08-23 23:00:00 23.4 29 Norte 49 Norte 0 -- -- 24
2020-08-23 22:00:00 22.6 27 Norte 50 Norte 0 -- -- 22
2020-08-23 21:00:00 20.2 28 Norte 47 Norte 0 -- -- 39
2020-08-23 20:00:00 21.4 29 Norte 45 Norte 0 -- -- 29
2020-08-23 19:00:00 22.4 31 Norte 46 Norte 0 -- -- 30
2020-08-23 18:00:00 22.2 28 Noroeste 45 Norte 0 -- -- 49
2020-08-23 17:00:00 24.1 26 Noroeste 42 Norte 0 -- -- 34
2020-08-23 16:00:00 25.8 18 Noroeste 38 Norte 0 -- -- 30
2020-08-23 15:00:00 26.3 18 Norte 38 Noroeste 0 -- -- 39
2020-08-23 14:00:00 26.1 21 Norte 42 Noroeste 0 -- -- 44
2020-08-23 13:00:00 25.5 23 Norte 46 Norte 0 -- -- 42
2020-08-23 12:00:00 25.5 25 Norte 45 Norte 0 -- -- 42
2020-08-23 11:00:00 24.8 24 Norte 48 Noroeste 0 -- -- 39
2020-08-23 10:00:00 24.3 27 Norte 46 Nordeste 0 -- -- 39
2020-08-23 09:00:00 24.4 27 Norte 48 Nordeste 0 -- -- 37
2020-08-23 08:00:00 23.3 29 Norte 52 Nordeste 0 -- -- 39
2020-08-23 07:00:00 23.4 30 Nordeste 52 Norte 0 -- -- 36
2020-08-23 06:00:00 23.6 27 Nordeste 51 Nordeste 0 -- -- 38
2020-08-23 05:00:00 23 28 Nordeste 50 Nordeste 0 -- -- 47
2020-08-23 04:00:00 23.8 28 Nordeste 48 Nordeste 0 -- -- 44
2020-08-23 03:00:00 24.1 24 Nordeste 47 Nordeste 0 -- -- 39
2020-08-23 02:00:00 23.1 17 Norte 49 Nordeste 0 -- -- 45
2020-08-23 01:00:00 23.1 17 Nordeste 43 Nordeste 0 -- -- 42
2020-08-23 00:00:00 23.5 22 Nordeste 49 Nordeste 0 -- -- 39
2020-08-22 23:00:00 24.6 30 Nordeste 51 Nordeste 0 -- -- 36
2020-08-22 22:00:00 24.6 34 Nordeste 49 Nordeste 0 -- -- 38
2020-08-22 21:00:00 25.3 31 Norte 47 Nordeste 0 -- -- 36
2020-08-22 20:00:00 25.4 5 Sur 22 Sudoeste 0 -- -- 29
2020-08-22 19:00:00 28.3 10 Sudoeste 32 Sur 0 -- -- 17
2020-08-22 18:00:00 30.8 9 Sudoeste 18 Sudoeste 0 -- -- 15
2020-08-22 17:00:00 33.8 4 Sur 19 Oeste 0 -- -- 14
2020-08-22 16:00:00 34.3 5 Sur 30 Sudeste 0 -- -- 14
2020-08-22 15:00:00 34.7 14 Sudeste 33 Sur 0 -- -- 14
2020-08-22 14:00:00 34 19 Sudeste 40 Este 0 -- -- 14
2020-08-22 13:00:00 36.1 23 Sudeste 39 Este 0 -- -- 16
2020-08-22 12:00:00 35.2 17 Sudeste 47 Este 0 -- -- 19
2020-08-22 11:00:00 32.3 20 Sudeste 37 Sudeste 0 -- -- 17
2020-08-22 10:00:00 27.9 12 Sudeste 42 Sudeste 0 -- -- 24
2020-08-22 09:00:00 25.5 19 Sudeste 42 Sudeste 0 -- -- 16
2020-08-22 08:00:00 20.6 3 Oeste 13 Sudoeste 0 -- -- 29
2020-08-22 07:00:00 20.4 5 Sur 22 Sudeste 0 -- -- 27
2020-08-22 06:00:00 21 3 Noroeste 9 Oeste 0 -- -- 20
2020-08-22 05:00:00 22.5 5 Oeste 13 Este 0 -- -- 17
2020-08-22 04:00:00 22.5 4 Oeste 12 Sudoeste 0 -- -- 17
2020-08-22 03:00:00 22.5 5 Oeste 14 Sudoeste 0 -- -- 19
2020-08-22 02:00:00 24.2 4 Sudoeste 27 Nordeste 0 -- -- 16
2020-08-22 01:00:00 28.3 8 Norte 29 Norte -- -- -- 9
2020-08-22 00:00:00 27.2 18 Norte 28 Norte 0 -- -- 10
2020-08-21 23:00:00 23.2 4 Este 14 Este 0 -- -- 16
2020-08-21 22:00:00 22.8 4 Este 15 Este 0 -- -- 14
2020-08-21 21:00:00 22.1 7 Nordeste 12 Nordeste 0 -- -- 20
2020-08-21 20:00:00 24.1 4 Sudeste 14 Sudeste 0 -- -- 27
2020-08-21 19:00:00 25.8 9 Sudeste 20 Sur 0 -- -- 24
2020-08-21 18:00:00 28.8 12 Sudeste 16 Sur 0 -- -- 24
2020-08-21 17:00:00 30.5 7 Sudeste 18 Sur 0 -- -- 29
2020-08-21 16:00:00 31.6 7 Sudeste 24 Sudeste 0 -- -- 28
2020-08-21 15:00:00 31.1 16 Sudeste 26 Sur 0 -- -- 41
2020-08-21 14:00:00 32 7 Sur 14 Sudeste 0 -- -- 38
2020-08-21 13:00:00 34 9 Sur 15 Sudeste 0 -- -- 34
2020-08-21 12:00:00 32.4 9 Sudeste 15 Sudeste 0 -- -- 26
2020-08-21 11:00:00 30.2 6 Sudeste 17 Sudeste 0 -- -- 21
2020-08-21 10:00:00 27.4 12 Sudeste 21 Este 0 -- -- 15
2020-08-21 09:00:00 24.4 4 Sur 18 Nordeste 0 -- -- 19
2020-08-21 08:00:00 21.2 4 Nordeste 20 Este 0 -- -- 19
2020-08-21 07:00:00 23.1 5 Sudeste 22 Nordeste 0 -- -- 15
2020-08-21 06:00:00 20.6 4 Oeste 14 Sudeste 0 -- -- 20
2020-08-21 05:00:00 19.6 4 Oeste 11 Sur 0 -- -- 19
2020-08-21 04:00:00 18.9 4 Oeste 12 Oeste 0 -- -- 20
2020-08-21 03:00:00 18.5 4 Oeste 13 Norte 0 -- -- 25
2020-08-21 02:00:00 19.1 2 Oeste 15 Noroeste 0 -- -- 24
2020-08-21 01:00:00 20.8 10 Norte 29 Norte 0 -- -- 22
2020-08-21 00:00:00 21.2 15 Norte 31 Norte 0 -- -- 23
2020-08-20 23:00:00 20.4 15 Norte 36 Norte 0 -- -- 27
2020-08-20 22:00:00 20.8 22 Norte 33 Norte 0 -- -- 27
2020-08-20 21:00:00 20.8 20 Norte 29 Norte 0 -- -- 26
2020-08-20 20:00:00 22.2 15 Noroeste 26 Norte 0 -- -- 27
2020-08-20 19:00:00 25.9 8 Noroeste 15 Norte 0 -- -- 31
2020-08-20 18:00:00 27.2 3 Este 13 Sur 0 -- -- 36
2020-08-20 17:00:00 29.4 8 Sudeste 18 Sudeste 0 -- -- 31
2020-08-20 16:00:00 30.3 10 Sudeste 19 Sudeste 0 -- -- 28
2020-08-20 15:00:00 31.1 12 Sudeste 20 Sudeste 0 -- -- 27
2020-08-20 14:00:00 32.1 13 Sudeste 22 Sudeste 0 -- -- 28
2020-08-20 13:00:00 32.4 13 Sudeste 20 Sudeste 0 -- -- 25
2020-08-20 12:00:00 31 11 Sudeste 18 Sudeste 0 -- -- 25
2020-08-20 11:00:00 27.7 9 Sudeste 20 Sudeste 0 -- -- 26
2020-08-20 10:00:00 25.5 9 Sudeste 17 Este 0 -- -- 26
2020-08-20 09:00:00 21.9 6 Sur 18 Este 0 -- -- 30
2020-08-20 08:00:00 19.6 9 Sudeste 22 Este 0 -- -- 31
2020-08-20 07:00:00 18.9 7 Sur 20 Este 0 -- -- 31
2020-08-20 06:00:00 17.7 5 Noroeste 22 Sudeste 0 -- -- 37
2020-08-20 05:00:00 17.7 12 Este 23 Sudeste 0 -- -- 34
2020-08-20 04:00:00 16.8 4 Sudeste 14 Este 0 -- -- 38
2020-08-20 03:00:00 17.7 8 Sudeste 19 Sudeste 0 -- -- 33
2020-08-20 02:00:00 17.2 0 Calma 8 Oeste 0 -- -- 36
2020-08-20 01:00:00 17.5 3 Oeste 10 Sudoeste 0 -- -- 34
2020-08-20 00:00:00 18.4 3 Sudoeste 10 Sudoeste 0 -- -- 31